createdAt,value
2023-01-03T00:01:25.922Z,81.48
2023-01-03T00:02:58.214Z,81.69
2023-01-03T00:04:30.308Z,81.64
2023-01-03T00:06:02.335Z,81.57
2023-01-03T00:07:34.669Z,81.26
2023-01-03T00:09:16.415Z,81.23
2023-01-03T00:10:48.382Z,81.35
2023-01-03T00:12:30.711Z,81.33
2023-01-03T00:14:03.389Z,81.64
2023-01-03T00:15:36.490Z,81.92
2023-01-03T00:17:09.752Z,81.98
2023-01-03T00:18:41.769Z,82.24
2023-01-03T00:20:15.938Z,82.05
2023-01-03T00:21:48.192Z,82.04
2023-01-03T00:23:20.443Z,81.79
2023-01-03T00:24:53.584Z,81.99
2023-01-03T00:26:25.582Z,81.95
2023-01-03T00:27:57.631Z,82.11
2023-01-03T00:29:29.761Z,82.13
2023-01-03T00:31:10.148Z,81.99
2023-01-03T00:32:42.279Z,82.30
2023-01-03T00:34:14.376Z,82.41
2023-01-03T00:35:46.391Z,82.05
2023-01-03T00:37:18.430Z,82.18
2023-01-03T00:38:50.530Z,82.19
2023-01-03T00:40:22.546Z,81.88
2023-01-03T00:41:54.997Z,81.75
2023-01-03T00:43:29.887Z,81.84
2023-01-03T00:45:01.865Z,81.66
2023-01-03T00:46:34.403Z,81.41
2023-01-03T00:48:06.625Z,81.64
2023-01-03T00:49:38.642Z,81.84
2023-01-03T00:51:15.266Z,81.79
2023-01-03T00:52:47.371Z,82.02
2023-01-03T00:54:19.361Z,82.01
2023-01-03T00:55:51.319Z,81.99
2023-01-03T00:57:23.348Z,82.19
2023-01-03T00:58:55.641Z,82.40
2023-01-03T01:00:27.583Z,82.03
2023-01-03T01:01:59.705Z,82.31
2023-01-03T01:03:31.912Z,82.40
2023-01-03T01:05:04.107Z,82.66
2023-01-03T01:06:40.381Z,82.45
2023-01-03T01:08:12.403Z,82.35
2023-01-03T01:09:44.673Z,82.73
2023-01-03T01:11:17.399Z,82.56
2023-01-03T01:12:49.574Z,82.33
2023-01-03T01:14:29.194Z,82.33
2023-01-03T01:16:06.998Z,82.28
2023-01-03T01:17:40.087Z,82.33
2023-01-03T01:19:12.368Z,82.17
2023-01-03T01:20:44.503Z,82.12
2023-01-03T01:22:16.518Z,82.22
2023-01-03T01:23:48.607Z,81.83
2023-01-03T01:25:20.654Z,82.08
2023-01-03T01:26:53.222Z,81.80
2023-01-03T01:28:25.343Z,81.95
2023-01-03T01:29:57.550Z,81.61
2023-01-03T01:31:29.758Z,81.79
2023-01-03T01:33:01.855Z,81.94
2023-01-03T01:34:33.978Z,82.27
2023-01-03T01:36:15.813Z,82.30
2023-01-03T01:37:47.860Z,82.32
2023-01-03T01:39:24.217Z,82.34
2023-01-03T01:40:56.189Z,82.34
2023-01-03T01:42:46.850Z,82.56
2023-01-03T01:44:54.106Z,82.27
2023-01-03T01:46:28.262Z,82.25
2023-01-03T01:48:03.458Z,81.94
2023-01-03T01:49:35.404Z,82.04
2023-01-03T01:51:09.520Z,82.27
2023-01-03T01:52:51.656Z,82.42
2023-01-03T01:54:24.708Z,82.23
2023-01-03T01:56:05.419Z,82.54
2023-01-03T01:57:39.102Z,82.74
2023-01-03T01:59:11.916Z,82.66
2023-01-03T02:00:44.695Z,82.91
2023-01-03T02:02:20.699Z,82.78
2023-01-03T02:04:04.702Z,83.14
2023-01-03T02:05:38.660Z,83.04
2023-01-03T02:07:11.028Z,82.87
2023-01-03T02:08:43.022Z,82.94
2023-01-03T02:10:15.036Z,82.53
2023-01-03T02:12:45.826Z,82.09
2023-01-03T02:14:49.892Z,82.04
2023-01-03T02:16:53.458Z,81.91
2023-01-03T02:18:34.760Z,81.83
2023-01-03T02:20:31.703Z,81.26
2023-01-03T02:22:15.658Z,81.42
2023-01-03T02:23:59.837Z,81.90
2023-01-03T02:25:54.994Z,82.33
2023-01-03T02:27:51.829Z,82.37
2023-01-03T02:29:51.189Z,82.14
2023-01-03T02:31:47.903Z,82.18
2023-01-03T02:33:49.305Z,82.38
2023-01-03T02:35:37.483Z,82.16
2023-01-03T02:37:47.534Z,82.06
2023-01-03T02:39:49.336Z,82.13
2023-01-03T02:43:09.458Z,82.45
2023-01-03T02:44:49.843Z,82.55
2023-01-03T02:46:28.226Z,82.71
2023-01-03T02:48:10.339Z,82.61
2023-01-03T02:49:50.093Z,82.45
2023-01-03T02:51:27.611Z,82.59
2023-01-03T02:53:03.991Z,82.45
2023-01-03T02:54:46.845Z,82.25
2023-01-03T02:56:24.941Z,82.50
2023-01-03T02:58:02.511Z,82.37
2023-01-03T02:59:58.060Z,82.53
2023-01-03T03:01:30.836Z,82.75
2023-01-03T03:03:06.877Z,82.72
2023-01-03T03:04:40.387Z,82.80
2023-01-03T03:06:18.520Z,82.58
2023-01-03T03:07:50.544Z,82.69
2023-01-03T03:09:22.690Z,82.71
2023-01-03T03:12:46.350Z,82.37
2023-01-03T03:14:23.338Z,82.27
2023-01-03T03:15:59.536Z,82.15
2023-01-03T03:17:32.177Z,82.09
2023-01-03T03:19:14.155Z,82.05
2023-01-03T03:21:04.793Z,82.17
2023-01-03T03:23:05.190Z,82.10
2023-01-03T03:24:52.239Z,82.24
2023-01-03T03:26:29.269Z,82.45
2023-01-03T03:28:23.286Z,82.56
2023-01-03T03:29:57.733Z,82.62
2023-01-03T03:31:42.163Z,82.59
2023-01-03T03:33:18.941Z,82.77
2023-01-03T03:34:51.211Z,82.97
2023-01-03T03:36:48.591Z,82.91
2023-01-03T03:38:29.445Z,82.84
2023-01-03T03:42:04.235Z,82.70
2023-01-03T03:44:01.860Z,82.40
2023-01-03T03:45:46.205Z,82.39
2023-01-03T03:47:53.785Z,82.29
2023-01-03T03:49:39.668Z,82.07
2023-01-03T03:51:15.814Z,82.32
2023-01-03T03:52:50.216Z,82.26
2023-01-03T03:54:23.837Z,82.48
2023-01-03T03:55:57.534Z,82.19
2023-01-03T03:57:30.489Z,82.24
2023-01-03T03:59:07.793Z,82.35
2023-01-03T04:00:41.198Z,82.32
2023-01-03T04:02:14.246Z,82.45
2023-01-03T04:03:47.975Z,82.45
2023-01-03T04:05:22.842Z,82.09
2023-01-03T04:06:55.037Z,82.22
2023-01-03T04:08:27.073Z,82.14
2023-01-03T04:09:59.161Z,82.42
2023-01-03T04:11:31.337Z,82.53
2023-01-03T04:13:04.519Z,82.49
2023-01-03T04:14:36.635Z,82.58
2023-01-03T04:16:08.822Z,82.44
2023-01-03T04:17:40.908Z,82.63
2023-01-03T04:19:12.914Z,82.67
2023-01-03T04:20:45.079Z,82.73
2023-01-03T04:22:17.027Z,82.69
2023-01-03T04:23:49.292Z,82.87
2023-01-03T04:25:21.327Z,82.52
2023-01-03T04:26:53.416Z,82.60
2023-01-03T04:28:25.481Z,82.48
2023-01-03T04:29:58.179Z,82.48
2023-01-03T04:31:30.210Z,82.72
2023-01-03T04:33:05.777Z,82.59
2023-01-03T04:34:37.769Z,82.53
2023-01-03T04:36:10.269Z,82.54
2023-01-03T04:37:42.258Z,82.26
2023-01-03T04:39:14.865Z,82.18
2023-01-03T04:40:47.188Z,82.34
2023-01-03T04:42:38.019Z,82.41
2023-01-03T04:47:30.692Z,82.71
2023-01-03T04:49:04.162Z,82.88
2023-01-03T04:50:36.266Z,83.06
2023-01-03T04:52:08.247Z,83.29
2023-01-03T04:53:40.214Z,83.13
2023-01-03T04:55:13.457Z,83.40
2023-01-03T04:56:45.467Z,83.15
2023-01-03T04:58:17.786Z,83.28
2023-01-03T04:59:49.897Z,83.11
2023-01-03T05:01:22.327Z,83.26
2023-01-03T05:02:54.450Z,83.16
2023-01-03T05:04:26.527Z,83.47
2023-01-03T05:06:02.751Z,83.32
2023-01-03T05:07:35.120Z,83.20
2023-01-03T05:09:07.195Z,82.98
2023-01-03T05:10:39.892Z,83.09
2023-01-03T05:12:12.630Z,83.21
2023-01-03T05:13:44.628Z,83.28
2023-01-03T05:15:16.617Z,83.26
2023-01-03T05:16:48.706Z,83.24
2023-01-03T05:18:20.837Z,83.21
2023-01-03T05:20:11.697Z,83.09
2023-01-03T05:22:02.383Z,82.68
2023-01-03T05:23:53.127Z,82.42
2023-01-03T05:25:43.664Z,82.43
2023-01-03T05:27:15.693Z,82.76
2023-01-03T05:28:50.833Z,82.72
2023-01-03T05:30:22.850Z,82.79
2023-01-03T05:31:57.517Z,82.76
2023-01-03T05:33:29.608Z,82.82
2023-01-03T05:35:01.639Z,83.02
2023-01-03T05:36:33.736Z,83.08
2023-01-03T05:38:05.831Z,83.01
2023-01-03T05:39:37.910Z,82.86
2023-01-03T05:41:10.454Z,82.80
2023-01-03T05:42:42.465Z,82.30
2023-01-03T05:44:14.465Z,81.98
2023-01-03T05:45:52.740Z,82.12
2023-01-03T05:47:26.037Z,82.27
2023-01-03T05:48:58.151Z,82.61
2023-01-03T05:50:30.192Z,82.56
2023-01-03T05:52:02.353Z,82.90
2023-01-03T05:53:34.396Z,83.16
2023-01-03T05:55:06.748Z,83.37
2023-01-03T05:56:38.864Z,83.20
2023-01-03T05:58:11.805Z,83.49
2023-01-03T05:59:44.856Z,83.51
2023-01-03T06:01:17.759Z,83.52
2023-01-03T06:02:49.872Z,83.53
2023-01-03T06:04:22.149Z,83.37
2023-01-03T06:05:54.281Z,83.35
2023-01-03T06:07:26.237Z,83.33
2023-01-03T06:08:58.269Z,82.90
2023-01-03T06:10:30.497Z,82.82
2023-01-03T06:12:02.754Z,82.78
2023-01-03T06:13:35.149Z,83.01
2023-01-03T06:15:07.677Z,83.20
2023-01-03T06:16:58.208Z,83.48
2023-01-03T06:18:30.370Z,83.72
2023-01-03T06:20:02.513Z,83.50
2023-01-03T06:21:35.124Z,83.53
2023-01-03T06:23:07.116Z,83.43
2023-01-03T06:24:39.084Z,83.50
2023-01-03T06:26:11.566Z,83.63
2023-01-03T06:27:43.541Z,83.62
2023-01-03T06:29:15.601Z,83.76
2023-01-03T06:30:47.645Z,84.02
2023-01-03T06:32:19.662Z,84.20
2023-01-03T06:33:51.800Z,84.24
2023-01-03T06:35:23.883Z,84.35
2023-01-03T06:36:55.854Z,84.36
2023-01-03T06:38:29.308Z,84.43
2023-01-03T06:40:01.653Z,84.40
2023-01-03T06:41:33.704Z,84.65
2023-01-03T06:43:05.821Z,84.52
2023-01-03T06:44:37.801Z,84.35
2023-01-03T06:46:29.911Z,84.37
2023-01-03T06:48:24.456Z,84.45
2023-01-03T06:50:31.825Z,84.75
2023-01-03T06:54:04.996Z,84.73
2023-01-03T06:55:39.796Z,84.94
2023-01-03T06:57:11.730Z,85.06
2023-01-03T06:58:59.144Z,85.03
2023-01-03T07:00:31.622Z,85.38
2023-01-03T07:02:05.750Z,85.28
2023-01-03T07:03:37.837Z,85.25
2023-01-03T07:05:10.117Z,85.35
2023-01-03T07:06:42.498Z,85.17
2023-01-03T07:08:14.777Z,85.16
2023-01-03T07:09:46.851Z,85.22
2023-01-03T07:11:18.948Z,85.04
2023-01-03T07:13:09.761Z,84.98
2023-01-03T07:14:41.785Z,84.95
2023-01-03T07:16:18.501Z,85.07
2023-01-03T07:17:50.611Z,84.83
2023-01-03T07:19:22.597Z,84.91
2023-01-03T07:20:54.809Z,84.49
2023-01-03T07:22:26.771Z,84.64
2023-01-03T07:24:02.082Z,84.64
2023-01-03T07:25:34.088Z,84.37
2023-01-03T07:27:09.966Z,84.55
2023-01-03T07:28:42.817Z,84.73
2023-01-03T07:30:15.171Z,84.87
2023-01-03T07:31:47.298Z,84.87
2023-01-03T07:33:19.656Z,84.90
2023-01-03T07:34:51.668Z,85.44
2023-01-03T07:36:23.745Z,85.47
2023-01-03T07:37:55.714Z,85.83
2023-01-03T07:39:27.868Z,85.64
2023-01-03T07:41:01.039Z,85.47
2023-01-03T07:42:51.554Z,85.62
2023-01-03T07:44:23.620Z,85.26
2023-01-03T07:45:55.773Z,84.99
2023-01-03T07:47:27.830Z,84.90
2023-01-03T07:49:07.885Z,84.82
2023-01-03T07:50:43.215Z,84.78
2023-01-03T07:52:15.344Z,85.13
2023-01-03T07:53:50.583Z,84.95
2023-01-03T07:55:25.014Z,85.53
2023-01-03T07:56:57.007Z,85.93
2023-01-03T07:58:29.103Z,86.23
2023-01-03T08:00:01.229Z,86.77
2023-01-03T08:01:39.374Z,86.97
2023-01-03T08:03:12.059Z,86.45
2023-01-03T08:04:44.289Z,86.36
2023-01-03T08:06:19.041Z,86.22
2023-01-03T08:07:52.063Z,86.18
2023-01-03T08:09:42.906Z,85.89
2023-01-03T08:11:34.110Z,85.73
2023-01-03T08:13:18.816Z,85.78
2023-01-03T08:14:50.985Z,85.71
2023-01-03T08:16:23.204Z,85.63
2023-01-03T08:17:55.410Z,85.44
2023-01-03T08:19:27.599Z,84.95
2023-01-03T08:20:59.736Z,84.95
2023-01-03T08:22:33.474Z,84.88
2023-01-03T08:24:05.611Z,84.82
2023-01-03T08:25:37.840Z,84.61
2023-01-03T08:27:09.943Z,84.35
2023-01-03T08:28:44.914Z,84.08
2023-01-03T08:30:16.894Z,83.87
2023-01-03T08:31:53.465Z,83.67
2023-01-03T08:33:27.457Z,83.67
2023-01-03T08:35:00.388Z,83.70
2023-01-03T08:36:40.218Z,83.41
2023-01-03T08:38:15.791Z,83.01
2023-01-03T08:39:52.372Z,82.84
2023-01-03T08:41:27.411Z,82.78
2023-01-03T08:42:59.536Z,82.42
2023-01-03T08:44:31.819Z,82.67
2023-01-03T08:46:05.908Z,82.37
2023-01-03T08:47:38.269Z,81.99
2023-01-03T08:49:11.207Z,81.26
2023-01-03T08:50:43.366Z,80.98
2023-01-03T08:52:15.569Z,80.77
2023-01-03T08:53:47.670Z,80.35
2023-01-03T08:55:19.990Z,80.21
2023-01-03T08:56:52.099Z,79.74
2023-01-03T08:58:24.223Z,79.59
2023-01-03T08:59:56.255Z,79.25
2023-01-03T09:01:28.594Z,79.29
2023-01-03T09:03:00.907Z,78.77
2023-01-03T09:04:33.111Z,78.82
2023-01-03T09:06:05.887Z,78.73
2023-01-03T09:07:38.039Z,78.12
2023-01-03T09:09:10.310Z,76.88
2023-01-03T09:10:47.538Z,76.36
2023-01-03T09:12:20.889Z,76.00
2023-01-03T09:13:55.840Z,75.22
2023-01-03T09:15:28.031Z,75.11
2023-01-03T09:17:00.084Z,74.75
2023-01-03T09:18:32.424Z,74.92
2023-01-03T09:20:07.062Z,74.21
2023-01-03T09:21:39.082Z,74.16
2023-01-03T09:23:11.178Z,73.77
2023-01-03T09:24:43.248Z,73.61
2023-01-03T09:26:15.306Z,73.36
2023-01-03T09:27:48.200Z,73.27
2023-01-03T09:29:20.255Z,72.73
2023-01-03T09:30:53.227Z,72.73
2023-01-03T09:32:25.268Z,72.48
2023-01-03T09:33:57.327Z,72.06
2023-01-03T09:35:29.362Z,71.78
2023-01-03T09:37:01.430Z,71.72
2023-01-03T09:38:33.491Z,70.79
2023-01-03T09:40:06.081Z,70.23
2023-01-03T09:41:39.460Z,69.28
2023-01-03T09:43:25.282Z,68.44
2023-01-03T09:44:59.085Z,68.11
2023-01-03T09:46:31.422Z,67.88
2023-01-03T09:48:05.097Z,67.91
2023-01-03T09:49:51.949Z,67.66
2023-01-03T09:51:54.375Z,66.37
2023-01-03T09:53:52.281Z,66.94
2023-01-03T09:56:04.529Z,66.17
2023-01-03T09:57:55.789Z,66.01
2023-01-03T09:59:54.241Z,62.53
2023-01-03T10:01:47.626Z,61.56
2023-01-03T10:03:50.265Z,61.78
2023-01-03T10:05:48.181Z,61.81
2023-01-03T10:07:44.501Z,61.19
2023-01-03T10:09:28.925Z,59.25
2023-01-03T10:11:10.068Z,59.30
2023-01-03T10:12:59.145Z,56.52
2023-01-03T10:14:44.609Z,55.12
2023-01-03T10:16:19.459Z,57.36
2023-01-03T10:17:54.475Z,56.31
2023-01-03T10:19:44.634Z,52.94
2023-01-03T10:21:27.673Z,55.63
2023-01-03T10:22:59.776Z,54.23
2023-01-03T10:24:33.525Z,54.12
2023-01-03T10:26:15.634Z,53.91
2023-01-03T10:27:54.200Z,52.86
2023-01-03T10:29:26.568Z,52.66
2023-01-03T10:31:10.718Z,50.28
2023-01-03T10:32:54.807Z,50.83
2023-01-03T10:34:26.841Z,51.16
2023-01-03T10:35:58.924Z,50.79
2023-01-03T10:37:30.960Z,50.19
2023-01-03T10:39:08.853Z,50.55
2023-01-03T10:40:44.664Z,49.45
2023-01-03T10:42:19.123Z,48.80
2023-01-03T10:44:01.470Z,49.78
2023-01-03T10:45:41.579Z,49.89
2023-01-03T10:47:16.863Z,50.39
2023-01-03T10:49:25.807Z,50.49
2023-01-03T10:50:46.444Z,50.73
2023-01-03T10:52:23.366Z,48.85
2023-01-03T10:53:57.160Z,50.78
2023-01-03T10:55:29.158Z,50.95
2023-01-03T10:57:01.251Z,50.77
2023-01-03T10:58:36.540Z,49.74
2023-01-03T11:00:35.067Z,49.07
2023-01-03T11:02:13.123Z,49.34
2023-01-03T11:03:51.127Z,48.46
2023-01-03T11:05:25.927Z,48.93
2023-01-03T11:07:13.694Z,49.00
2023-01-03T11:08:49.353Z,49.10
2023-01-03T11:10:21.910Z,49.15
2023-01-03T11:12:04.100Z,48.05
2023-01-03T11:13:41.415Z,47.62
2023-01-03T11:15:38.767Z,48.02
2023-01-03T11:17:12.873Z,48.18
2023-01-03T11:19:05.475Z,48.36
2023-01-03T11:21:07.432Z,48.98
2023-01-03T11:22:44.521Z,49.06
2023-01-03T11:24:43.677Z,49.37
2023-01-03T11:26:36.667Z,46.82
2023-01-03T11:28:30.318Z,47.50
2023-01-03T11:32:27.935Z,46.52
2023-01-03T11:35:11.508Z,46.57
2023-01-03T11:36:35.027Z,46.16
2023-01-03T11:38:14.129Z,46.95
2023-01-03T11:40:24.739Z,46.46
2023-01-03T11:42:35.364Z,46.12
2023-01-03T11:44:20.918Z,45.76
2023-01-03T11:46:17.994Z,46.04
2023-01-03T11:48:44.115Z,45.37
2023-01-03T11:50:28.984Z,45.84
2023-01-03T11:52:10.523Z,46.08
2023-01-03T11:54:24.187Z,46.37
2023-01-03T11:56:27.272Z,46.08
2023-01-03T11:58:29.070Z,46.29
2023-01-03T12:00:25.633Z,46.92
2023-01-03T12:02:22.507Z,46.30
2023-01-03T12:03:57.856Z,46.45
2023-01-03T12:05:48.571Z,47.27
2023-01-03T12:09:23.924Z,47.71
2023-01-03T12:11:11.214Z,47.85
2023-01-03T12:12:55.384Z,47.38
2023-01-03T12:14:32.497Z,47.48
2023-01-03T12:16:21.167Z,47.11
2023-01-03T12:18:24.161Z,47.21
2023-01-03T12:20:15.916Z,48.22
2023-01-03T12:22:18.121Z,48.01
2023-01-03T12:23:57.527Z,47.78
2023-01-03T12:25:37.815Z,48.54
2023-01-03T12:27:24.136Z,47.81
2023-01-03T12:29:12.278Z,47.78
2023-01-03T12:30:48.865Z,47.59
2023-01-03T12:32:40.362Z,47.51
2023-01-03T12:34:44.393Z,47.50
2023-01-03T12:36:37.826Z,49.04
2023-01-03T12:38:11.015Z,48.41
2023-01-03T12:39:43.071Z,49.86
2023-01-03T12:41:33.267Z,48.41
2023-01-03T12:43:05.281Z,49.18
2023-01-03T12:44:43.000Z,49.39
2023-01-03T12:46:30.651Z,48.86
2023-01-03T12:48:09.623Z,47.91
2023-01-03T12:49:47.202Z,48.56
2023-01-03T12:51:22.056Z,47.28
2023-01-03T12:53:10.693Z,47.71
2023-01-03T12:55:15.151Z,48.04
2023-01-03T12:57:11.820Z,47.59
2023-01-03T12:59:08.386Z,48.14
2023-01-03T13:01:15.978Z,48.53
2023-01-03T13:02:54.155Z,48.56
2023-01-03T13:04:29.394Z,48.00
2023-01-03T13:06:06.916Z,48.88
2023-01-03T13:07:40.884Z,48.14
2023-01-03T13:09:21.487Z,48.52
2023-01-03T13:10:55.566Z,48.42
2023-01-03T13:12:30.380Z,48.43
2023-01-03T13:14:15.637Z,48.75
2023-01-03T13:15:49.016Z,48.48
2023-01-03T13:17:26.762Z,49.15
2023-01-03T13:19:24.388Z,48.44
2023-01-03T13:20:56.815Z,48.22
2023-01-03T13:22:28.977Z,48.01
2023-01-03T13:24:01.050Z,48.44
2023-01-03T13:25:39.618Z,49.43
2023-01-03T13:27:23.218Z,49.22
2023-01-03T13:29:34.723Z,49.43
2023-01-03T13:31:18.333Z,49.21
2023-01-03T13:33:12.282Z,48.84
2023-01-03T13:34:44.361Z,48.94
2023-01-03T13:36:16.422Z,49.44
2023-01-03T13:37:55.157Z,49.38
2023-01-03T13:39:39.064Z,49.12
2023-01-03T13:41:36.581Z,49.72
2023-01-03T13:43:08.680Z,49.84
2023-01-03T13:44:40.680Z,50.37
2023-01-03T13:46:23.501Z,50.17
2023-01-03T13:47:56.146Z,49.71
2023-01-03T13:49:28.929Z,50.12
2023-01-03T13:51:14.586Z,50.07
2023-01-03T13:53:12.814Z,49.89
2023-01-03T13:54:59.017Z,49.54
2023-01-03T13:56:55.265Z,50.40
2023-01-03T13:58:52.221Z,49.97
2023-01-03T14:00:24.711Z,50.13
2023-01-03T14:02:03.352Z,50.54
2023-01-03T14:04:08.799Z,51.35
2023-01-03T14:06:04.825Z,50.60
2023-01-03T14:08:08.007Z,50.90
2023-01-03T14:09:49.071Z,51.35
2023-01-03T14:11:30.169Z,52.05
2023-01-03T14:13:39.043Z,52.26
2023-01-03T14:15:25.835Z,52.06
2023-01-03T14:16:59.360Z,52.48
2023-01-03T14:20:24.708Z,52.25
2023-01-03T14:22:26.594Z,53.30
2023-01-03T14:24:00.858Z,52.85
2023-01-03T14:25:44.160Z,53.33
2023-01-03T14:27:18.722Z,52.93
2023-01-03T14:28:55.318Z,54.14
2023-01-03T14:30:32.932Z,53.03
2023-01-03T14:32:05.547Z,53.56
2023-01-03T14:33:42.032Z,53.96
2023-01-03T14:35:34.038Z,53.61
2023-01-03T14:37:18.223Z,53.80
2023-01-03T14:38:53.914Z,54.27
2023-01-03T14:40:25.922Z,53.89
2023-01-03T14:41:58.405Z,54.42
2023-01-03T14:43:32.896Z,54.18
2023-01-03T14:45:07.370Z,54.08
2023-01-03T14:46:50.454Z,54.07
2023-01-03T14:49:58.839Z,54.21
2023-01-03T14:51:33.373Z,54.14
2023-01-03T14:53:05.496Z,54.42
2023-01-03T14:54:38.091Z,54.59
2023-01-03T14:56:11.124Z,54.74
2023-01-03T14:57:44.462Z,55.16
2023-01-03T14:59:17.388Z,55.22
2023-01-03T15:00:51.085Z,55.62
2023-01-03T15:02:24.055Z,56.10
2023-01-03T15:03:56.443Z,56.13
2023-01-03T15:05:38.777Z,56.57
2023-01-03T15:07:34.446Z,57.14
2023-01-03T15:09:22.692Z,57.35
2023-01-03T15:10:57.521Z,57.82
2023-01-03T15:12:31.458Z,58.02
2023-01-03T15:14:06.226Z,58.07
2023-01-03T15:15:39.300Z,58.41
2023-01-03T15:17:11.353Z,58.80
2023-01-03T15:18:44.769Z,58.93
2023-01-03T15:20:17.408Z,59.06
2023-01-03T15:21:49.918Z,59.24
2023-01-03T15:23:41.070Z,59.29
2023-01-03T15:25:34.132Z,59.78
2023-01-03T15:27:37.890Z,60.12
2023-01-03T15:29:21.140Z,60.44
2023-01-03T15:30:55.273Z,61.06
2023-01-03T15:32:27.335Z,61.12
2023-01-03T15:34:17.107Z,61.24
2023-01-03T15:35:51.569Z,61.41
2023-01-03T15:37:24.469Z,61.44
2023-01-03T15:38:56.573Z,61.16
2023-01-03T15:40:31.034Z,61.34
2023-01-03T15:44:18.214Z,62.30
2023-01-03T15:46:03.967Z,62.07
2023-01-03T15:47:36.347Z,62.43
2023-01-03T15:49:10.340Z,62.62
2023-01-03T15:50:51.656Z,62.98
2023-01-03T15:52:23.692Z,62.76
2023-01-03T15:53:55.715Z,63.33
2023-01-03T15:55:27.816Z,63.52
2023-01-03T15:57:02.816Z,63.60
2023-01-03T15:58:36.805Z,63.91
2023-01-03T16:00:11.414Z,64.00
2023-01-03T16:01:43.851Z,64.44
2023-01-03T16:03:18.158Z,64.58
2023-01-03T16:04:50.598Z,64.82
2023-01-03T16:06:22.614Z,65.35
2023-01-03T16:07:54.821Z,65.47
2023-01-03T16:09:26.766Z,65.53
2023-01-03T16:11:00.780Z,65.52
2023-01-03T16:12:37.005Z,65.47
2023-01-03T16:14:18.047Z,65.51
2023-01-03T16:15:50.982Z,65.53
2023-01-03T16:17:26.721Z,65.86
2023-01-03T16:18:58.865Z,66.34
2023-01-03T16:20:33.586Z,66.40
2023-01-03T16:22:34.026Z,66.51
2023-01-03T16:23:57.716Z,66.72
2023-01-03T16:25:29.815Z,67.05
2023-01-03T16:27:12.140Z,67.05
2023-01-03T16:28:44.187Z,67.07
2023-01-03T16:30:16.252Z,67.21
2023-01-03T16:31:48.354Z,67.59
2023-01-03T16:33:20.986Z,67.73
2023-01-03T16:34:53.237Z,67.70
2023-01-03T16:36:28.166Z,67.80
2023-01-03T16:38:00.277Z,67.96
2023-01-03T16:39:32.363Z,68.14
2023-01-03T16:41:04.647Z,68.17
2023-01-03T16:42:36.712Z,68.28
2023-01-03T16:44:08.755Z,68.48
2023-01-03T16:45:47.194Z,68.50
2023-01-03T16:47:26.226Z,68.74
2023-01-03T16:48:59.818Z,68.86
2023-01-03T16:50:32.894Z,68.82
2023-01-03T16:52:05.225Z,68.74
2023-01-03T16:53:38.969Z,69.19
2023-01-03T16:55:24.727Z,69.19
2023-01-03T16:56:56.865Z,69.52
2023-01-03T16:58:29.266Z,69.70
2023-01-03T17:00:01.384Z,69.42
2023-01-03T17:01:33.511Z,69.53
2023-01-03T17:03:05.905Z,69.78
2023-01-03T17:04:38.107Z,69.62
2023-01-03T17:06:37.654Z,69.57
2023-01-03T17:08:22.073Z,69.98
2023-01-03T17:09:54.080Z,70.32
2023-01-03T17:11:26.928Z,70.61
2023-01-03T17:12:59.957Z,70.75
2023-01-03T17:14:35.973Z,70.67
2023-01-03T17:16:26.011Z,70.79
2023-01-03T17:17:58.140Z,71.02
2023-01-03T17:21:33.928Z,70.99
2023-01-03T17:23:06.052Z,71.13
2023-01-03T17:24:38.153Z,71.08
2023-01-03T17:26:15.689Z,71.04
2023-01-03T17:27:52.314Z,70.98
2023-01-03T17:29:25.994Z,71.00
2023-01-03T17:30:57.995Z,71.44
2023-01-03T17:32:30.886Z,71.40
2023-01-03T17:34:16.363Z,71.00
2023-01-03T17:35:48.551Z,71.16
2023-01-03T17:37:21.750Z,71.24
2023-01-03T17:38:55.306Z,71.44
2023-01-03T17:40:33.205Z,71.59
2023-01-03T17:42:16.273Z,71.60
2023-01-03T17:43:48.472Z,72.00
2023-01-03T17:45:39.580Z,72.08
2023-01-03T17:47:36.279Z,72.06
2023-01-03T17:49:25.721Z,72.44
2023-01-03T17:50:58.380Z,72.80
2023-01-03T17:52:33.065Z,73.22
2023-01-03T17:54:05.204Z,73.36
2023-01-03T17:55:37.261Z,73.23
2023-01-03T17:57:11.303Z,72.70
2023-01-03T17:58:43.701Z,72.55
2023-01-03T18:00:22.009Z,72.32
2023-01-03T18:01:55.086Z,72.90
2023-01-03T18:03:27.312Z,73.02
2023-01-03T18:05:16.410Z,73.31
2023-01-03T18:07:00.334Z,73.49
2023-01-03T18:08:32.644Z,73.76
2023-01-03T18:10:06.955Z,73.83
2023-01-03T18:11:40.190Z,73.85
2023-01-03T18:13:27.343Z,74.00
2023-01-03T18:14:59.522Z,74.09
2023-01-03T18:16:33.765Z,74.17
2023-01-03T18:18:05.891Z,74.49
2023-01-03T18:19:40.857Z,74.62
2023-01-03T18:21:24.198Z,74.83
2023-01-03T18:22:56.287Z,74.99
2023-01-03T18:24:31.401Z,74.96
2023-01-03T18:26:06.317Z,75.03
2023-01-03T18:27:38.436Z,75.07
2023-01-03T18:29:14.933Z,75.41
2023-01-03T18:30:47.029Z,75.37
2023-01-03T18:32:29.213Z,75.54
2023-01-03T18:34:04.831Z,75.28
2023-01-03T18:35:38.353Z,75.29
2023-01-03T18:37:10.711Z,75.24
2023-01-03T18:38:43.081Z,75.65
2023-01-03T18:40:20.851Z,75.38
2023-01-03T18:41:53.164Z,75.58
2023-01-03T18:43:25.423Z,75.64
2023-01-03T18:44:57.451Z,75.52
2023-01-03T18:46:29.662Z,75.35
2023-01-03T18:48:01.883Z,75.64
2023-01-03T18:49:33.939Z,75.75
2023-01-03T18:51:06.130Z,75.71
2023-01-03T18:52:41.505Z,75.52
2023-01-03T18:54:18.241Z,75.59
2023-01-03T18:55:50.533Z,75.38
2023-01-03T18:57:23.156Z,75.66
2023-01-03T18:59:01.859Z,75.83
2023-01-03T19:00:34.695Z,75.90
2023-01-03T19:02:15.121Z,75.27
2023-01-03T19:03:47.487Z,75.43
2023-01-03T19:05:20.081Z,75.47
2023-01-03T19:06:52.735Z,75.25
2023-01-03T19:08:27.142Z,74.91
2023-01-03T19:09:59.591Z,75.07
2023-01-03T19:11:34.579Z,75.09
2023-01-03T19:13:06.752Z,74.99
2023-01-03T19:14:43.432Z,75.52
2023-01-03T19:16:20.629Z,75.94
2023-01-03T19:17:53.023Z,76.51
2023-01-03T19:19:26.584Z,76.55
2023-01-03T19:20:58.403Z,75.96
2023-01-03T19:22:33.788Z,75.92
2023-01-03T19:24:07.060Z,76.22
2023-01-03T19:25:39.039Z,77.03
2023-01-03T19:27:15.332Z,77.40
2023-01-03T19:28:47.435Z,77.68
2023-01-03T19:30:38.321Z,78.04
2023-01-03T19:32:22.955Z,78.36
2023-01-03T19:33:55.036Z,78.02
2023-01-03T19:35:27.374Z,78.03
2023-01-03T19:36:59.579Z,77.98
2023-01-03T19:38:31.643Z,77.98
2023-01-03T19:40:03.950Z,78.38
2023-01-03T19:42:02.010Z,78.25
2023-01-03T19:43:34.199Z,78.33
2023-01-03T19:45:14.659Z,78.33
2023-01-03T19:46:46.723Z,78.34
2023-01-03T19:48:22.058Z,78.33
2023-01-03T19:49:55.303Z,78.24
2023-01-03T19:51:27.412Z,78.43
2023-01-03T19:53:01.991Z,78.37
2023-01-03T19:54:33.974Z,78.45
2023-01-03T19:56:19.962Z,78.24
2023-01-03T19:57:52.037Z,77.91
2023-01-03T19:59:28.196Z,77.45
2023-01-03T20:01:00.651Z,77.58
2023-01-03T20:02:32.883Z,77.87
2023-01-03T20:04:05.469Z,77.90
2023-01-03T20:05:37.685Z,77.96
2023-01-03T20:07:14.135Z,77.65
2023-01-03T20:08:47.362Z,77.41
2023-01-03T20:10:24.935Z,77.43
2023-01-03T20:11:57.274Z,77.40
2023-01-03T20:13:29.257Z,77.70
2023-01-03T20:15:06.844Z,78.16
2023-01-03T20:16:39.528Z,78.07
2023-01-03T20:18:34.302Z,78.23
2023-01-03T20:20:07.237Z,77.93
2023-01-03T20:21:39.449Z,78.21
2023-01-03T20:23:15.425Z,78.16
2023-01-03T20:24:47.891Z,78.67
2023-01-03T20:26:23.348Z,78.69
2023-01-03T20:27:56.266Z,78.87
2023-01-03T20:29:28.466Z,78.99
2023-01-03T20:31:01.618Z,79.19
2023-01-03T20:32:33.668Z,78.99
2023-01-03T20:34:06.914Z,78.62
2023-01-03T20:37:31.341Z,79.05
2023-01-03T20:39:03.609Z,78.95
2023-01-03T20:40:35.846Z,78.54
2023-01-03T20:42:21.728Z,78.62
2023-01-03T20:43:53.820Z,79.04
2023-01-03T20:45:25.939Z,78.51
2023-01-03T20:46:58.916Z,78.57
2023-01-03T20:48:31.339Z,78.76
2023-01-03T20:50:04.149Z,78.82
2023-01-03T20:51:36.199Z,79.03
2023-01-03T20:53:16.726Z,78.89
2023-01-03T20:54:48.857Z,79.22
2023-01-03T20:56:21.272Z,78.98
2023-01-03T20:57:54.031Z,78.73
2023-01-03T20:59:26.328Z,78.98
2023-01-03T21:01:04.612Z,79.47
2023-01-03T21:02:37.022Z,79.67
2023-01-03T21:04:09.869Z,79.43
2023-01-03T21:30:08.960Z,79.65
2023-01-03T21:31:42.866Z,79.54
2023-01-03T21:33:18.517Z,80.02
2023-01-03T21:34:50.549Z,80.17
2023-01-03T21:36:29.073Z,80.23
2023-01-03T21:38:01.151Z,80.36
2023-01-03T21:39:33.240Z,80.45
2023-01-03T21:41:05.325Z,80.49
2023-01-03T21:43:01.455Z,80.12
2023-01-03T21:44:35.602Z,80.07
2023-01-03T21:46:08.057Z,80.31
2023-01-03T21:47:40.092Z,80.20
2023-01-03T21:49:12.171Z,80.39